createdAt,value
2018-08-04T00:02:10.300Z,101120.00
2018-08-04T00:04:39.733Z,101114.00
2018-08-04T00:07:09.302Z,101128.00
2018-08-04T00:09:39.296Z,101128.00
2018-08-04T00:12:09.097Z,101131.00
2018-08-04T00:14:38.554Z,101130.00
2018-08-04T00:17:08.200Z,101116.00
2018-08-04T00:19:37.983Z,101106.00
2018-08-04T00:22:07.713Z,101113.00
2018-08-04T00:24:38.639Z,101110.00
2018-08-04T00:27:08.851Z,101124.00
2018-08-04T00:29:38.999Z,101117.00
2018-08-04T00:32:08.654Z,101114.00
2018-08-04T00:34:38.444Z,101105.00
2018-08-04T00:37:08.353Z,101118.00
2018-08-04T00:39:37.989Z,101108.00
2018-08-04T00:42:07.588Z,101113.00
2018-08-04T00:44:36.994Z,101117.00
2018-08-04T00:47:06.837Z,101113.00
2018-08-04T00:49:37.335Z,101108.00
2018-08-04T00:52:07.283Z,101115.00
2018-08-04T00:54:36.669Z,101116.00
2018-08-04T00:57:06.050Z,101117.00
2018-08-04T00:59:35.574Z,101118.00
2018-08-04T01:02:05.154Z,101113.00
2018-08-04T01:04:34.894Z,101117.00
2018-08-04T01:07:05.357Z,101118.00
2018-08-04T01:09:34.959Z,101113.00
2018-08-04T01:12:04.875Z,101109.00
2018-08-04T01:14:34.209Z,101113.00
2018-08-04T01:17:03.837Z,101118.00
2018-08-04T01:19:34.096Z,101112.00
2018-08-04T01:22:03.382Z,101096.00
2018-08-04T01:24:33.057Z,101107.00
2018-08-04T01:27:02.627Z,101102.00
2018-08-04T01:29:32.085Z,101112.00
2018-08-04T01:32:01.911Z,101108.00
2018-08-04T01:34:31.188Z,101099.00
2018-08-04T01:37:00.464Z,101105.00
2018-08-04T01:39:30.156Z,101104.00
2018-08-04T01:41:59.734Z,101094.00
2018-08-04T01:44:29.722Z,101093.00
2018-08-04T01:46:58.828Z,101091.00
2018-08-04T01:49:28.376Z,101089.00
2018-08-04T01:51:58.166Z,101091.00
2018-08-04T01:54:28.069Z,101086.00
2018-08-04T01:56:57.820Z,101089.00
2018-08-04T01:59:27.232Z,101095.00
2018-08-04T02:01:56.427Z,101092.00
2018-08-04T02:04:26.186Z,101092.00
2018-08-04T02:06:55.822Z,101090.00
2018-08-04T02:09:25.468Z,101091.00
2018-08-04T02:11:55.282Z,101091.00
2018-08-04T02:14:24.854Z,101095.00
2018-08-04T02:16:54.416Z,101096.00
2018-08-04T02:19:24.036Z,101095.00
2018-08-04T02:21:53.396Z,101085.00
2018-08-04T02:24:22.932Z,101081.00
2018-08-04T02:26:52.710Z,101078.00
2018-08-04T02:29:22.424Z,101081.00
2018-08-04T02:31:52.183Z,101081.00
2018-08-04T02:34:21.812Z,101075.00
2018-08-04T02:36:51.601Z,101078.00
2018-08-04T02:39:21.290Z,101082.00
2018-08-04T02:41:51.548Z,101070.00
2018-08-04T02:44:21.614Z,101082.00
2018-08-04T02:46:50.878Z,101071.00
2018-08-04T02:49:20.402Z,101077.00
2018-08-04T02:51:49.686Z,101068.00
2018-08-04T02:54:19.649Z,101071.00
2018-08-04T02:56:49.554Z,101073.00
2018-08-04T02:59:19.160Z,101080.00
2018-08-04T03:01:48.556Z,101085.00
2018-08-04T03:04:18.348Z,101081.00
2018-08-04T03:06:47.634Z,101077.00
2018-08-04T03:09:16.663Z,101073.00
2018-08-04T03:11:46.138Z,101078.00
2018-08-04T03:14:15.398Z,101082.00
2018-08-04T03:16:44.423Z,101075.00
2018-08-04T03:19:13.550Z,101083.00
2018-08-04T03:21:42.736Z,101076.00
2018-08-04T03:24:12.442Z,101072.00
2018-08-04T03:26:41.706Z,101079.00
2018-08-04T03:29:10.760Z,101080.00
2018-08-04T03:31:40.298Z,101085.00
2018-08-04T03:34:09.814Z,101087.00
2018-08-04T03:36:39.042Z,101079.00
2018-08-04T03:39:10.125Z,101077.00
2018-08-04T03:41:39.968Z,101080.00
2018-08-04T03:44:09.292Z,101077.00
2018-08-04T03:46:38.593Z,101068.00
2018-08-04T03:49:07.872Z,101069.00
2018-08-04T03:51:37.450Z,101087.00
2018-08-04T03:54:07.101Z,101102.00
2018-08-04T03:56:36.562Z,101105.00
2018-08-04T03:59:06.970Z,101111.00
2018-08-04T04:01:36.374Z,101111.00
2018-08-04T04:04:06.430Z,101107.00
2018-08-04T04:06:36.181Z,101096.00
2018-08-04T04:09:08.254Z,101101.00
2018-08-04T04:11:38.412Z,101095.00
2018-08-04T04:14:07.954Z,101087.00
2018-08-04T04:16:37.999Z,101099.00
2018-08-04T04:19:08.266Z,101100.00
2018-08-04T04:21:37.986Z,101083.00
2018-08-04T04:24:08.124Z,101082.00
2018-08-04T04:26:38.428Z,101085.00
2018-08-04T04:29:08.592Z,101090.00
2018-08-04T04:31:38.965Z,101084.00
2018-08-04T04:34:09.524Z,101079.00
2018-08-04T04:36:39.640Z,101092.00
2018-08-04T04:39:11.022Z,101092.00
2018-08-04T04:41:41.652Z,101101.00
2018-08-04T04:44:11.832Z,101092.00
2018-08-04T04:46:42.013Z,101096.00
2018-08-04T04:49:13.723Z,101089.00
2018-08-04T04:51:44.121Z,101090.00
2018-08-04T04:54:14.344Z,101096.00
2018-08-04T04:56:44.319Z,101104.00
2018-08-04T04:59:13.985Z,101099.00
2018-08-04T05:01:43.923Z,101093.00
2018-08-04T05:04:14.971Z,101114.00
2018-08-04T05:06:45.067Z,101102.00
2018-08-04T05:09:15.245Z,101109.00
2018-08-04T05:11:45.815Z,101102.00
2018-08-04T05:14:15.519Z,101101.00
2018-08-04T05:16:45.680Z,101105.00
2018-08-04T05:19:15.977Z,101110.00
2018-08-04T05:21:46.398Z,101104.00
2018-08-04T05:24:17.711Z,101108.00
2018-08-04T05:26:48.103Z,101111.00
2018-08-04T05:29:18.335Z,101102.00
2018-08-04T05:31:48.678Z,101101.00
2018-08-04T05:34:22.345Z,101103.00
2018-08-04T05:36:52.881Z,101103.00
2018-08-04T05:39:23.134Z,101103.00
2018-08-04T05:41:53.550Z,101106.00
2018-08-04T05:44:23.637Z,101099.00
2018-08-04T05:46:54.347Z,101093.00
2018-08-04T05:49:25.205Z,101099.00
2018-08-04T05:51:55.581Z,101093.00
2018-08-04T05:54:25.621Z,101092.00
2018-08-04T05:56:56.311Z,101100.00
2018-08-04T05:59:26.341Z,101105.00
2018-08-04T06:01:56.321Z,101101.00
2018-08-04T06:04:26.741Z,101116.00
2018-08-04T06:06:56.091Z,101123.00
2018-08-04T06:09:26.389Z,101114.00
2018-08-04T06:11:55.982Z,101124.00
2018-08-04T06:14:25.595Z,101129.00
2018-08-04T06:16:55.745Z,101142.00
2018-08-04T06:19:25.953Z,101129.00
2018-08-04T06:21:55.552Z,101123.00
2018-08-04T06:24:25.803Z,101129.00
2018-08-04T06:26:55.698Z,101133.00
2018-08-04T06:29:25.720Z,101140.00
2018-08-04T06:31:56.108Z,101141.00
2018-08-04T06:34:26.040Z,101133.00
2018-08-04T06:36:56.121Z,101138.00
2018-08-04T06:39:26.058Z,101135.00
2018-08-04T06:41:56.098Z,101130.00
2018-08-04T06:44:26.425Z,101129.00
2018-08-04T06:46:56.039Z,101124.00
2018-08-04T06:49:26.309Z,101120.00
2018-08-04T06:51:56.124Z,101120.00
2018-08-04T06:54:26.929Z,101124.00
2018-08-04T06:56:57.205Z,101125.00
2018-08-04T06:59:27.694Z,101127.00
2018-08-04T07:01:57.753Z,101109.00
2018-08-04T07:04:27.989Z,101107.00
2018-08-04T07:06:58.176Z,101117.00
2018-08-04T07:09:28.289Z,101124.00
2018-08-04T07:11:58.241Z,101123.00
2018-08-04T07:14:28.609Z,101120.00
2018-08-04T07:16:58.785Z,101131.00
2018-08-04T07:19:28.799Z,101125.00
2018-08-04T07:21:58.909Z,101122.00
2018-08-04T07:24:28.703Z,101121.00
2018-08-04T07:26:58.921Z,101120.00
2018-08-04T07:29:29.565Z,101127.00
2018-08-04T07:31:59.517Z,101120.00
2018-08-04T07:34:29.616Z,101134.00
2018-08-04T07:37:00.172Z,101136.00
2018-08-04T07:39:30.604Z,101131.00
2018-08-04T07:42:01.268Z,101130.00
2018-08-04T07:44:31.530Z,101120.00
2018-08-04T07:47:01.909Z,101128.00
2018-08-04T07:49:31.709Z,101129.00
2018-08-04T07:52:02.436Z,101127.00
2018-08-04T07:54:33.023Z,101127.00
2018-08-04T07:57:03.185Z,101126.00
2018-08-04T07:59:33.161Z,101122.00
2018-08-04T08:02:03.526Z,101131.00
2018-08-04T08:04:33.459Z,101132.00
2018-08-04T08:07:03.285Z,101137.00
2018-08-04T08:09:33.117Z,101127.00
2018-08-04T08:12:02.995Z,101131.00
2018-08-04T08:14:33.261Z,101128.00
2018-08-04T08:17:03.416Z,101130.00
2018-08-04T08:19:34.001Z,101125.00
2018-08-04T08:22:04.554Z,101122.00
2018-08-04T08:24:35.172Z,101135.00
2018-08-04T08:27:05.245Z,101135.00
2018-08-04T08:29:35.475Z,101147.00
2018-08-04T08:32:05.876Z,101126.00
2018-08-04T08:34:36.035Z,101129.00
2018-08-04T08:37:06.264Z,101119.00
2018-08-04T08:39:36.208Z,101131.00
2018-08-04T08:42:06.698Z,101134.00
2018-08-04T08:44:37.364Z,101131.00
2018-08-04T08:47:07.180Z,101138.00
2018-08-04T08:49:37.171Z,101133.00
2018-08-04T08:52:07.355Z,101134.00
2018-08-04T08:54:37.570Z,101130.00
2018-08-04T08:57:08.254Z,101128.00
2018-08-04T08:59:38.593Z,101132.00
2018-08-04T09:02:08.524Z,101135.00
2018-08-04T09:04:38.711Z,101137.00
2018-08-04T09:07:09.014Z,101126.00
2018-08-04T09:09:38.766Z,101129.00
2018-08-04T09:12:08.449Z,101127.00
2018-08-04T09:14:39.092Z,101128.00
2018-08-04T09:17:09.554Z,101127.00
2018-08-04T09:19:39.762Z,101138.00
2018-08-04T09:22:10.086Z,101135.00
2018-08-04T09:24:40.398Z,101144.00
2018-08-04T09:27:11.154Z,101135.00
2018-08-04T09:29:41.371Z,101131.00
2018-08-04T09:32:11.765Z,101133.00
2018-08-04T09:34:42.191Z,101123.00
2018-08-04T09:37:12.177Z,101127.00
2018-08-04T09:39:42.261Z,101128.00
2018-08-04T09:42:12.905Z,101122.00
2018-08-04T09:44:43.180Z,101120.00
2018-08-04T09:47:13.578Z,101119.00
2018-08-04T09:49:43.724Z,101119.00
2018-08-04T09:52:13.740Z,101122.00
2018-08-04T09:54:43.827Z,101126.00
2018-08-04T09:57:13.538Z,101125.00
2018-08-04T09:59:43.403Z,101124.00
2018-08-04T10:02:14.063Z,101122.00
2018-08-04T10:04:44.193Z,101127.00
2018-08-04T10:07:14.735Z,101122.00
2018-08-04T10:09:45.461Z,101126.00
2018-08-04T10:12:15.719Z,101123.00
2018-08-04T10:14:45.942Z,101120.00
2018-08-04T10:17:16.281Z,101119.00
2018-08-04T10:19:46.320Z,101123.00
2018-08-04T10:22:16.965Z,101112.00
2018-08-04T10:24:46.968Z,101115.00
2018-08-04T10:27:17.016Z,101117.00
2018-08-04T10:29:47.058Z,101112.00
2018-08-04T10:32:17.422Z,101119.00
2018-08-04T10:34:48.305Z,101126.00
2018-08-04T10:37:18.677Z,101116.00
2018-08-04T10:39:49.104Z,101113.00
2018-08-04T10:42:19.038Z,101124.00
2018-08-04T10:44:48.808Z,101114.00
2018-08-04T10:47:19.067Z,101106.00
2018-08-04T10:49:48.753Z,101102.00
2018-08-04T10:52:18.572Z,101103.00
2018-08-04T10:54:50.556Z,101105.00
2018-08-04T10:57:23.101Z,101104.00
2018-08-04T10:59:53.242Z,101095.00
2018-08-04T11:02:23.485Z,101104.00
2018-08-04T11:04:54.787Z,101089.00
2018-08-04T11:07:25.983Z,101095.00
2018-08-04T11:09:56.660Z,101085.00
2018-08-04T11:12:26.984Z,101093.00
2018-08-04T11:14:57.139Z,101090.00
2018-08-04T11:17:28.361Z,101087.00
2018-08-04T11:19:58.423Z,101095.00
2018-08-04T11:22:28.221Z,101082.00
2018-08-04T11:25:00.109Z,101088.00
2018-08-04T11:27:30.743Z,101089.00
2018-08-04T11:30:00.953Z,101083.00
2018-08-04T11:32:31.064Z,101076.00
2018-08-04T11:35:02.782Z,101080.00
2018-08-04T11:37:33.546Z,101080.00
2018-08-04T11:40:04.285Z,101082.00
2018-08-04T11:42:34.797Z,101087.00
2018-08-04T11:45:06.036Z,101082.00
2018-08-04T11:47:35.849Z,101074.00
2018-08-04T11:50:05.749Z,101087.00
2018-08-04T11:52:35.717Z,101071.00
2018-08-04T11:55:05.478Z,101085.00
2018-08-04T11:57:35.720Z,101071.00
2018-08-04T12:00:06.211Z,101071.00
2018-08-04T12:02:35.910Z,101066.00
2018-08-04T12:05:06.852Z,101081.00
2018-08-04T12:07:37.208Z,101072.00
2018-08-04T12:10:07.889Z,101075.00
2018-08-04T12:12:38.310Z,101075.00
2018-08-04T12:15:08.683Z,101076.00
2018-08-04T12:17:39.152Z,101067.00
2018-08-04T12:20:09.612Z,101068.00
2018-08-04T12:22:39.606Z,101070.00
2018-08-04T12:25:09.824Z,101070.00
2018-08-04T12:27:40.129Z,101067.00
2018-08-04T12:30:10.543Z,101078.00
2018-08-04T12:32:40.417Z,101068.00
2018-08-04T12:35:10.636Z,101070.00
2018-08-04T12:37:40.606Z,101073.00
2018-08-04T12:40:10.306Z,101065.00
2018-08-04T12:42:40.552Z,101064.00
2018-08-04T12:45:10.803Z,101064.00
2018-08-04T12:47:40.528Z,101058.00
2018-08-04T12:50:10.625Z,101061.00
2018-08-04T12:52:40.641Z,101064.00
2018-08-04T12:55:11.046Z,101062.00
2018-08-04T12:57:41.610Z,101051.00
2018-08-04T13:00:12.183Z,101048.00
2018-08-04T13:02:42.116Z,101047.00
2018-08-04T13:05:11.661Z,101037.00
2018-08-04T13:07:42.455Z,101033.00
2018-08-04T13:10:12.430Z,101039.00
2018-08-04T13:12:42.513Z,101033.00
2018-08-04T13:15:12.627Z,101027.00
2018-08-04T13:17:42.659Z,101036.00
2018-08-04T13:20:12.763Z,101031.00
2018-08-04T13:22:43.607Z,101030.00
2018-08-04T13:25:14.711Z,101023.00
2018-08-04T13:27:44.945Z,101026.00
2018-08-04T13:30:14.661Z,101026.00
2018-08-04T13:32:44.825Z,101028.00
2018-08-04T13:35:15.483Z,101020.00
2018-08-04T13:37:45.409Z,101027.00
2018-08-04T13:40:16.005Z,101020.00
2018-08-04T13:42:46.001Z,101029.00
2018-08-04T13:45:16.557Z,101030.00
2018-08-04T13:47:46.457Z,101023.00
2018-08-04T13:50:16.516Z,101031.00
2018-08-04T13:52:47.481Z,101034.00
2018-08-04T13:55:17.809Z,101026.00
2018-08-04T13:57:47.991Z,101029.00
2018-08-04T14:00:18.595Z,101025.00
2018-08-04T14:02:49.598Z,101015.00
2018-08-04T14:05:19.827Z,101019.00
2018-08-04T14:07:49.367Z,101021.00
2018-08-04T14:10:19.366Z,101025.00
2018-08-04T14:12:48.947Z,101020.00
2018-08-04T14:15:19.558Z,101023.00
2018-08-04T14:17:49.357Z,101018.00
2018-08-04T14:20:19.186Z,101023.00
2018-08-04T14:22:49.648Z,101021.00
2018-08-04T14:25:19.991Z,101018.00
2018-08-04T14:27:52.227Z,101019.00
2018-08-04T14:30:22.055Z,101020.00
2018-08-04T14:32:53.292Z,101011.00
2018-08-04T14:35:23.721Z,101009.00
2018-08-04T14:37:53.541Z,100995.00
2018-08-04T14:40:23.743Z,100999.00
2018-08-04T14:42:53.776Z,101015.00
2018-08-04T14:45:23.524Z,101008.00
2018-08-04T14:47:54.119Z,101010.00
2018-08-04T14:50:23.901Z,101004.00
2018-08-04T14:52:53.659Z,101000.00
2018-08-04T14:55:23.614Z,101012.00
2018-08-04T14:57:54.123Z,101002.00
2018-08-04T15:00:24.179Z,100995.00
2018-08-04T15:02:54.629Z,100996.00
2018-08-04T15:05:24.600Z,101001.00
2018-08-04T15:07:54.688Z,101001.00
2018-08-04T15:10:24.791Z,100989.00
2018-08-04T15:12:54.445Z,100999.00
2018-08-04T15:15:24.389Z,100991.00
2018-08-04T15:17:54.648Z,100991.00
2018-08-04T15:20:24.263Z,100987.00
2018-08-04T15:22:54.541Z,100995.00
2018-08-04T15:25:26.736Z,100994.00
2018-08-04T15:27:56.727Z,100988.00
2018-08-04T15:30:26.704Z,100993.00
2018-08-04T15:32:56.729Z,100994.00
2018-08-04T15:35:27.161Z,100989.00
2018-08-04T15:37:57.908Z,100987.00
2018-08-04T15:40:27.999Z,100992.00
2018-08-04T15:42:58.507Z,100993.00
2018-08-04T15:45:28.863Z,100993.00
2018-08-04T15:47:59.508Z,100991.00
2018-08-04T15:50:29.429Z,100993.00
2018-08-04T15:53:00.194Z,100987.00
2018-08-04T15:55:30.936Z,100988.00
2018-08-04T15:58:01.371Z,100995.00
2018-08-04T16:00:31.796Z,101001.00
2018-08-04T16:03:03.342Z,100988.00
2018-08-04T16:05:33.504Z,100992.00
2018-08-04T16:08:04.256Z,100987.00
2018-08-04T16:10:35.583Z,100980.00
2018-08-04T16:13:06.080Z,100995.00
2018-08-04T16:15:36.133Z,100987.00
2018-08-04T16:18:07.286Z,100992.00
2018-08-04T16:20:37.418Z,100988.00
2018-08-04T16:23:07.544Z,100986.00
2018-08-04T16:25:37.809Z,100987.00
2018-08-04T16:28:07.987Z,100995.00
2018-08-04T16:30:38.237Z,100988.00
2018-08-04T16:33:08.503Z,100989.00
2018-08-04T16:35:38.307Z,100991.00
2018-08-04T16:38:08.835Z,100999.00
2018-08-04T16:40:38.749Z,100985.00
2018-08-04T16:43:08.255Z,100980.00
2018-08-04T16:45:38.423Z,100987.00
2018-08-04T16:48:08.345Z,100982.00
2018-08-04T16:50:38.791Z,100986.00
2018-08-04T16:53:09.379Z,100982.00
2018-08-04T16:55:38.900Z,100987.00
2018-08-04T16:58:09.349Z,100989.00
2018-08-04T17:00:39.084Z,100979.00
2018-08-04T17:03:10.163Z,100980.00
2018-08-04T17:05:42.336Z,100984.00
2018-08-04T17:08:12.541Z,100977.00
2018-08-04T17:10:42.735Z,100991.00
2018-08-04T17:13:12.928Z,100985.00
2018-08-04T17:15:43.221Z,100994.00
2018-08-04T17:18:14.037Z,100992.00
2018-08-04T17:20:44.060Z,100995.00
2018-08-04T17:23:14.480Z,100994.00
2018-08-04T17:25:45.274Z,100994.00
2018-08-04T17:28:16.413Z,100993.00
2018-08-04T17:30:47.320Z,100996.00
2018-08-04T17:33:18.165Z,101004.00
2018-08-04T17:35:48.884Z,101006.00
2018-08-04T17:38:19.498Z,100996.00
2018-08-04T17:40:49.420Z,100997.00
2018-08-04T17:43:20.017Z,101016.00
2018-08-04T17:45:51.220Z,101022.00
2018-08-04T17:48:21.673Z,101018.00
2018-08-04T17:50:52.755Z,101025.00
2018-08-04T17:53:23.493Z,101030.00
2018-08-04T17:55:53.987Z,101030.00
2018-08-04T17:58:24.794Z,101030.00
2018-08-04T18:00:55.293Z,101041.00
2018-08-04T18:03:25.662Z,101035.00
2018-08-04T18:05:56.341Z,101049.00
2018-08-04T18:08:26.498Z,101054.00
2018-08-04T18:10:56.713Z,101045.00
2018-08-04T18:13:26.809Z,101043.00
2018-08-04T18:15:57.333Z,101040.00
2018-08-04T18:18:27.499Z,101041.00
2018-08-04T18:20:57.667Z,101049.00
2018-08-04T18:23:28.016Z,101055.00
2018-08-04T18:25:59.006Z,101053.00
2018-08-04T18:28:29.896Z,101057.00
2018-08-04T18:30:59.931Z,101055.00
2018-08-04T18:33:31.208Z,101057.00
2018-08-04T18:36:00.872Z,101044.00
2018-08-04T18:38:32.291Z,101056.00
2018-08-04T18:41:02.179Z,101065.00
2018-08-04T18:43:32.136Z,101064.00
2018-08-04T18:46:02.417Z,101065.00
2018-08-04T18:48:32.400Z,101066.00
2018-08-04T18:51:02.312Z,101075.00
2018-08-04T18:53:32.272Z,101069.00
2018-08-04T18:56:02.292Z,101075.00
2018-08-04T18:58:32.181Z,101074.00
2018-08-04T19:01:02.262Z,101075.00
2018-08-04T19:03:32.407Z,101075.00
2018-08-04T19:06:02.220Z,101083.00
2018-08-04T19:08:31.437Z,101075.00
2018-08-04T19:11:01.136Z,101086.00
2018-08-04T19:13:30.538Z,101087.00
2018-08-04T19:15:59.732Z,101082.00
2018-08-04T19:18:29.114Z,101087.00
2018-08-04T19:20:58.185Z,101096.00
2018-08-04T19:23:28.221Z,101082.00
2018-08-04T19:25:57.928Z,101086.00
2018-08-04T19:28:27.182Z,101093.00
2018-08-04T19:30:56.536Z,101092.00
2018-08-04T19:33:25.766Z,101102.00
2018-08-04T19:35:55.394Z,101095.00
2018-08-04T19:38:24.705Z,101104.00
2018-08-04T19:40:54.512Z,101115.00
2018-08-04T19:43:23.918Z,101108.00
2018-08-04T19:45:53.615Z,101120.00
2018-08-04T19:48:23.175Z,101128.00
2018-08-04T19:50:53.106Z,101128.00
2018-08-04T19:53:22.734Z,101127.00
2018-08-04T19:55:52.590Z,101133.00
2018-08-04T19:58:22.664Z,101130.00
2018-08-04T20:00:52.478Z,101133.00
2018-08-04T20:03:22.332Z,101145.00
2018-08-04T20:05:51.708Z,101136.00
2018-08-04T20:08:21.688Z,101153.00
2018-08-04T20:10:51.515Z,101152.00
2018-08-04T20:13:21.461Z,101149.00
2018-08-04T20:15:51.391Z,101151.00
2018-08-04T20:18:21.136Z,101149.00
2018-08-04T20:20:50.612Z,101150.00
2018-08-04T20:23:21.000Z,101153.00
2018-08-04T20:25:50.497Z,101152.00
2018-08-04T20:28:20.166Z,101159.00
2018-08-04T20:30:50.126Z,101158.00
2018-08-04T20:33:20.475Z,101164.00
2018-08-04T20:35:50.268Z,101166.00
2018-08-04T20:38:19.880Z,101166.00
2018-08-04T20:40:49.302Z,101168.00
2018-08-04T20:43:18.958Z,101174.00
2018-08-04T20:45:48.538Z,101172.00
2018-08-04T20:48:18.154Z,101167.00
2018-08-04T20:50:47.944Z,101173.00
2018-08-04T20:53:17.799Z,101178.00
2018-08-04T20:55:47.725Z,101175.00
2018-08-04T20:58:17.261Z,101176.00
2018-08-04T21:00:57.792Z,101176.00
2018-08-04T21:03:27.512Z,101166.00
2018-08-04T21:05:57.763Z,101181.00
2018-08-04T21:08:27.377Z,101182.00
2018-08-04T21:10:57.062Z,101185.00
2018-08-04T21:13:26.993Z,101176.00
2018-08-04T21:15:56.830Z,101171.00
2018-08-04T21:18:26.140Z,101178.00
2018-08-04T21:20:55.685Z,101188.00
2018-08-04T21:23:26.260Z,101178.00
2018-08-04T21:25:55.997Z,101184.00
2018-08-04T21:28:26.167Z,101188.00
2018-08-04T21:30:57.200Z,101186.00
2018-08-04T21:33:27.287Z,101187.00
2018-08-04T21:35:56.700Z,101191.00
2018-08-04T21:38:26.386Z,101190.00
2018-08-04T21:40:55.882Z,101189.00
2018-08-04T21:43:25.672Z,101184.00
2018-08-04T21:45:55.635Z,101203.00
2018-08-04T21:48:25.223Z,101198.00
2018-08-04T21:50:54.915Z,101205.00
2018-08-04T21:53:24.780Z,101208.00
2018-08-04T21:55:54.399Z,101205.00
2018-08-04T21:58:24.096Z,101207.00
2018-08-04T22:00:59.218Z,101206.00
2018-08-04T22:03:29.050Z,101208.00
2018-08-04T22:05:59.164Z,101210.00
2018-08-04T22:08:39.512Z,101204.00
2018-08-04T22:11:09.570Z,101214.00
2018-08-04T22:13:40.040Z,101219.00
2018-08-04T22:16:09.849Z,101221.00
2018-08-04T22:18:39.325Z,101217.00
2018-08-04T22:21:08.871Z,101226.00
2018-08-04T22:23:38.676Z,101230.00
2018-08-04T22:26:08.444Z,101227.00
2018-08-04T22:28:37.989Z,101229.00
2018-08-04T22:31:07.710Z,101221.00
2018-08-04T22:33:37.364Z,101223.00
2018-08-04T22:36:06.899Z,101230.00
2018-08-04T22:38:36.456Z,101232.00
2018-08-04T22:41:05.927Z,101235.00
2018-08-04T22:43:35.225Z,101228.00
2018-08-04T22:46:13.520Z,101238.00
2018-08-04T22:48:44.325Z,101238.00
2018-08-04T22:51:14.039Z,101237.00
2018-08-04T22:53:43.266Z,101238.00
2018-08-04T22:56:13.069Z,101234.00
2018-08-04T22:58:42.670Z,101235.00
2018-08-04T23:01:12.351Z,101232.00
2018-08-04T23:03:42.146Z,101234.00
2018-08-04T23:06:11.713Z,101235.00
2018-08-04T23:08:41.423Z,101241.00
2018-08-04T23:11:11.148Z,101234.00
2018-08-04T23:13:41.396Z,101243.00
2018-08-04T23:16:10.829Z,101246.00
2018-08-04T23:18:40.824Z,101247.00
2018-08-04T23:21:11.276Z,101249.00
2018-08-04T23:23:40.854Z,101246.00
2018-08-04T23:26:10.604Z,101248.00
2018-08-04T23:28:40.762Z,101253.00
2018-08-04T23:31:10.333Z,101245.00
2018-08-04T23:33:40.655Z,101246.00
2018-08-04T23:36:10.300Z,101256.00
2018-08-04T23:38:40.365Z,101249.00
2018-08-04T23:41:12.748Z,101262.00
2018-08-04T23:43:45.412Z,101268.00
2018-08-04T23:46:15.878Z,101264.00
2018-08-04T23:48:45.354Z,101262.00
2018-08-04T23:51:15.592Z,101264.00
2018-08-04T23:53:45.377Z,101271.00
2018-08-04T23:56:14.857Z,101267.00
2018-08-04T23:58:44.431Z,101263.00
